RYR629 EIDW-LPMA
Flight info
| Callsign | RYR629 |
|---|---|
| Flight time | 3h 15m |
| Altitude | 36000 |
| Route | PELI2J PELIG DCT LASNO/M078F360 T9 BEGAS/N0455F360 DCT RIPEL/N0441F350 DCT LIDRO LIDR1P |
| Aircraft | B738/M-V/N |
Departure
| Time | 2026-05-04 18:48 |
|---|---|
| Airport | Dublin Airport (EIDW) |
Arrival
| Time | 2026-05-04 22:03 |
|---|---|
| Airport | Cristiano Ronaldo International Airport (LPMA) |
| Time | Latitude | Longitude | Altitude | Speed | Heading |
|---|---|---|---|---|---|
| 2026-05-04 18:14 | 53.43007 | -6.24944 | 210 ft | 0 kts | 5° |
| 2026-05-04 18:35 | 53.43006 | -6.24944 | 210 ft | 1 kts | 5° |
| 2026-05-04 18:36 | 53.42982 | -6.24946 | 210 ft | 4 kts | 355° |
| 2026-05-04 18:36 | 53.42957 | -6.24936 | 210 ft | 4 kts | 326° |
| 2026-05-04 18:36 | 53.42945 | -6.24910 | 212 ft | 1 kts | 275° |
| 2026-05-04 18:36 | 53.42945 | -6.24909 | 212 ft | 0 kts | 275° |
| 2026-05-04 18:39 | 53.42946 | -6.24915 | 210 ft | 2 kts | 275° |
| 2026-05-04 18:39 | 53.42947 | -6.24940 | 215 ft | 2 kts | 275° |
| 2026-05-04 18:40 | 53.42948 | -6.24967 | 210 ft | 2 kts | 275° |
| 2026-05-04 18:40 | 53.42950 | -6.25008 | 212 ft | 4 kts | 275° |
| 2026-05-04 18:40 | 53.42953 | -6.25057 | 217 ft | 4 kts | 275° |
| 2026-05-04 18:40 | 53.42955 | -6.25106 | 218 ft | 5 kts | 275° |
| 2026-05-04 18:41 | 53.42960 | -6.25172 | 212 ft | 6 kts | 277° |
| 2026-05-04 18:41 | 53.42959 | -6.25241 | 210 ft | 6 kts | 259° |
| 2026-05-04 18:41 | 53.42946 | -6.25307 | 212 ft | 6 kts | 263° |
| 2026-05-04 18:41 | 53.42968 | -6.25365 | 214 ft | 6 kts | 323° |
| 2026-05-04 18:42 | 53.43005 | -6.25398 | 210 ft | 6 kts | 333° |
| 2026-05-04 18:42 | 53.43043 | -6.25428 | 218 ft | 6 kts | 336° |
| 2026-05-04 18:42 | 53.43080 | -6.25456 | 210 ft | 6 kts | 336° |
| 2026-05-04 18:42 | 53.43119 | -6.25482 | 210 ft | 6 kts | 338° |
| 2026-05-04 18:43 | 53.43167 | -6.25515 | 210 ft | 10 kts | 338° |
| 2026-05-04 18:43 | 53.43242 | -6.25567 | 212 ft | 13 kts | 337° |
| 2026-05-04 18:43 | 53.43321 | -6.25625 | 215 ft | 12 kts | 336° |
| 2026-05-04 18:43 | 53.43400 | -6.25629 | 211 ft | 12 kts | 43° |
| 2026-05-04 18:44 | 53.43403 | -6.25494 | 210 ft | 12 kts | 96° |
| 2026-05-04 18:44 | 53.43398 | -6.25405 | 215 ft | 12 kts | 96° |
| 2026-05-04 18:44 | 53.43389 | -6.25229 | 214 ft | 11 kts | 96° |
| 2026-05-04 18:44 | 53.43382 | -6.25102 | 213 ft | 11 kts | 95° |
| 2026-05-04 18:45 | 53.43376 | -6.24978 | 210 ft | 11 kts | 94° |
| 2026-05-04 18:45 | 53.43371 | -6.24858 | 214 ft | 10 kts | 94° |
| 2026-05-04 18:45 | 53.43365 | -6.24743 | 214 ft | 10 kts | 95° |
| 2026-05-04 18:45 | 53.43360 | -6.24631 | 218 ft | 10 kts | 85° |
| 2026-05-04 18:46 | 53.43406 | -6.24561 | 210 ft | 9 kts | 18° |
| 2026-05-04 18:46 | 53.43470 | -6.24548 | 221 ft | 9 kts | 5° |
| 2026-05-04 18:46 | 53.43523 | -6.24583 | 221 ft | 9 kts | 292° |
| 2026-05-04 18:46 | 53.43529 | -6.24702 | 218 ft | 20 kts | 275° |
| 2026-05-04 18:47 | 53.43564 | -6.25336 | 216 ft | 89 kts | 275° |
| 2026-05-04 18:47 | 53.43640 | -6.26730 | 210 ft | 148 kts | 276° |
| 2026-05-04 18:47 | 53.43724 | -6.28751 | 261 ft | 193 kts | 275° |
| 2026-05-04 18:47 | 53.43922 | -6.31015 | 838 ft | 205 kts | 279° |
| 2026-05-04 18:48 | 53.44190 | -6.33429 | 1385 ft | 215 kts | 284° |
| 2026-05-04 18:48 | 53.44487 | -6.35955 | 1837 ft | 231 kts | 277° |
| 2026-05-04 18:48 | 53.44184 | -6.38651 | 2205 ft | 243 kts | 250° |
| 2026-05-04 18:48 | 53.43513 | -6.41277 | 2681 ft | 247 kts | 249° |
| 2026-05-04 18:49 | 53.42658 | -6.43789 | 3134 ft | 254 kts | 226° |
| 2026-05-04 18:49 | 53.41136 | -6.45215 | 3667 ft | 256 kts | 200° |
| 2026-05-04 18:49 | 53.39491 | -6.46163 | 4189 ft | 257 kts | 200° |
| 2026-05-04 18:49 | 53.37793 | -6.47122 | 4710 ft | 257 kts | 200° |
| 2026-05-04 18:50 | 53.36103 | -6.48078 | 5227 ft | 257 kts | 200° |
| 2026-05-04 18:50 | 53.34406 | -6.49044 | 5732 ft | 259 kts | 201° |
| 2026-05-04 18:50 | 53.32710 | -6.50018 | 6328 ft | 257 kts | 201° |
| 2026-05-04 18:50 | 53.31019 | -6.50994 | 6826 ft | 258 kts | 201° |
| 2026-05-04 18:51 | 53.29307 | -6.51987 | 7243 ft | 262 kts | 201° |
| 2026-05-04 18:51 | 53.27566 | -6.53001 | 7681 ft | 268 kts | 201° |
| 2026-05-04 18:51 | 53.25801 | -6.54030 | 8293 ft | 269 kts | 201° |
| 2026-05-04 18:51 | 53.24024 | -6.55067 | 8873 ft | 273 kts | 201° |
| 2026-05-04 18:52 | 53.22225 | -6.56118 | 9426 ft | 276 kts | 201° |
| 2026-05-04 18:52 | 53.20398 | -6.57186 | 9958 ft | 281 kts | 200° |
| 2026-05-04 18:52 | 53.18537 | -6.58274 | 10471 ft | 284 kts | 200° |
| 2026-05-04 18:52 | 53.16652 | -6.59375 | 10813 ft | 295 kts | 200° |
| 2026-05-04 18:53 | 53.14672 | -6.60532 | 11113 ft | 306 kts | 200° |
| 2026-05-04 18:53 | 53.12641 | -6.61718 | 11577 ft | 311 kts | 200° |
| 2026-05-04 18:53 | 53.10588 | -6.62914 | 12169 ft | 313 kts | 200° |
| 2026-05-04 18:53 | 53.08525 | -6.64116 | 12716 ft | 316 kts | 200° |
| 2026-05-04 18:54 | 53.06446 | -6.65326 | 13282 ft | 318 kts | 200° |
| 2026-05-04 18:54 | 53.04349 | -6.66545 | 13853 ft | 320 kts | 200° |
| 2026-05-04 18:54 | 53.02243 | -6.67768 | 14348 ft | 322 kts | 199° |
| 2026-05-04 18:54 | 53.00128 | -6.68995 | 14768 ft | 327 kts | 199° |
| 2026-05-04 18:55 | 52.97969 | -6.70247 | 15227 ft | 330 kts | 199° |
| 2026-05-04 18:55 | 52.93602 | -6.72775 | 16160 ft | 336 kts | 199° |
| 2026-05-04 18:55 | 52.91354 | -6.74074 | 16645 ft | 339 kts | 199° |
| 2026-05-04 18:56 | 52.89164 | -6.75338 | 17139 ft | 341 kts | 199° |
| 2026-05-04 18:56 | 52.86919 | -6.76633 | 17621 ft | 343 kts | 198° |
| 2026-05-04 18:56 | 52.84658 | -6.77935 | 18106 ft | 345 kts | 198° |
| 2026-05-04 18:56 | 52.82384 | -6.79244 | 18534 ft | 348 kts | 198° |
| 2026-05-04 18:57 | 52.80095 | -6.80560 | 18934 ft | 351 kts | 198° |
| 2026-05-04 18:57 | 52.77787 | -6.81885 | 19332 ft | 353 kts | 198° |
| 2026-05-04 18:57 | 52.75462 | -6.83218 | 19709 ft | 356 kts | 198° |
| 2026-05-04 18:57 | 52.73110 | -6.84566 | 20100 ft | 359 kts | 198° |
| 2026-05-04 18:58 | 52.70738 | -6.85923 | 20489 ft | 361 kts | 198° |
| 2026-05-04 18:58 | 52.68353 | -6.87286 | 20878 ft | 364 kts | 198° |
| 2026-05-04 18:58 | 52.65950 | -6.88658 | 21258 ft | 367 kts | 198° |
| 2026-05-04 18:58 | 52.63529 | -6.90038 | 21634 ft | 369 kts | 198° |
| 2026-05-04 18:59 | 52.61092 | -6.91426 | 22003 ft | 372 kts | 197° |
| 2026-05-04 18:59 | 52.58633 | -6.92825 | 22361 ft | 375 kts | 197° |
| 2026-05-04 18:59 | 52.56157 | -6.94232 | 22720 ft | 378 kts | 197° |
| 2026-05-04 18:59 | 52.53663 | -6.95648 | 23070 ft | 381 kts | 197° |
| 2026-05-04 19:00 | 52.51152 | -6.97070 | 23438 ft | 384 kts | 197° |
| 2026-05-04 19:00 | 52.48617 | -6.98506 | 23752 ft | 386 kts | 197° |
| 2026-05-04 19:00 | 52.46100 | -6.99929 | 24015 ft | 389 kts | 197° |
| 2026-05-04 19:00 | 52.43540 | -7.01375 | 24301 ft | 391 kts | 197° |
| 2026-05-04 19:01 | 52.40954 | -7.02834 | 24597 ft | 394 kts | 197° |
| 2026-05-04 19:01 | 52.38353 | -7.04300 | 24890 ft | 396 kts | 197° |
| 2026-05-04 19:01 | 52.35783 | -7.05746 | 25157 ft | 398 kts | 197° |
| 2026-05-04 19:01 | 52.33162 | -7.07218 | 25426 ft | 401 kts | 197° |
| 2026-05-04 19:02 | 52.30514 | -7.08705 | 25685 ft | 403 kts | 197° |
| 2026-05-04 19:02 | 52.27848 | -7.10199 | 25950 ft | 406 kts | 197° |
| 2026-05-04 19:02 | 52.25189 | -7.11688 | 26207 ft | 408 kts | 197° |
| 2026-05-04 19:02 | 52.22495 | -7.13195 | 26511 ft | 409 kts | 196° |
| 2026-05-04 19:03 | 52.19811 | -7.14695 | 26854 ft | 408 kts | 196° |
| 2026-05-04 19:03 | 52.17122 | -7.16195 | 27197 ft | 408 kts | 196° |
| 2026-05-04 19:03 | 52.14429 | -7.17696 | 27496 ft | 409 kts | 196° |
| 2026-05-04 19:03 | 52.11770 | -7.19175 | 27821 ft | 409 kts | 196° |
| 2026-05-04 19:04 | 52.09078 | -7.20671 | 28139 ft | 408 kts | 196° |
| 2026-05-04 19:04 | 52.06393 | -7.22161 | 28432 ft | 409 kts | 196° |
| 2026-05-04 19:04 | 52.03696 | -7.23655 | 28707 ft | 409 kts | 195° |
| 2026-05-04 19:04 | 52.00996 | -7.25150 | 29003 ft | 409 kts | 195° |
| 2026-05-04 19:05 | 51.95536 | -7.28162 | 29159 ft | 421 kts | 195° |
| 2026-05-04 19:05 | 51.89914 | -7.31255 | 29276 ft | 433 kts | 195° |
| 2026-05-04 19:06 | 51.87052 | -7.32829 | 29377 ft | 437 kts | 195° |
| 2026-05-04 19:06 | 51.84163 | -7.34416 | 29578 ft | 439 kts | 195° |
| 2026-05-04 19:06 | 51.81263 | -7.36008 | 29811 ft | 440 kts | 195° |
| 2026-05-04 19:06 | 51.78358 | -7.37600 | 30029 ft | 442 kts | 195° |
| 2026-05-04 19:07 | 51.75438 | -7.39198 | 30208 ft | 444 kts | 195° |
| 2026-05-04 19:07 | 51.72506 | -7.40800 | 30374 ft | 446 kts | 195° |
| 2026-05-04 19:07 | 51.69560 | -7.42407 | 30549 ft | 447 kts | 195° |
| 2026-05-04 19:07 | 51.66611 | -7.44014 | 30726 ft | 449 kts | 195° |
| 2026-05-04 19:08 | 51.63650 | -7.45624 | 30901 ft | 450 kts | 195° |
| 2026-05-04 19:08 | 51.60678 | -7.47239 | 31070 ft | 451 kts | 195° |
| 2026-05-04 19:08 | 51.57698 | -7.48855 | 31244 ft | 452 kts | 195° |
| 2026-05-04 19:08 | 51.54714 | -7.50472 | 31416 ft | 453 kts | 195° |
| 2026-05-04 19:09 | 51.51722 | -7.52090 | 31591 ft | 454 kts | 195° |
| 2026-05-04 19:09 | 51.48725 | -7.53709 | 31767 ft | 455 kts | 195° |
| 2026-05-04 19:09 | 51.45723 | -7.55329 | 31945 ft | 456 kts | 195° |
| 2026-05-04 19:09 | 51.42714 | -7.56949 | 32105 ft | 457 kts | 195° |
| 2026-05-04 19:10 | 51.39658 | -7.58593 | 32258 ft | 458 kts | 195° |
| 2026-05-04 19:10 | 51.36676 | -7.60195 | 32407 ft | 459 kts | 195° |
| 2026-05-04 19:10 | 51.33647 | -7.61819 | 32551 ft | 460 kts | 195° |
| 2026-05-04 19:10 | 51.30573 | -7.63466 | 32720 ft | 460 kts | 195° |
| 2026-05-04 19:11 | 51.27538 | -7.65090 | 32891 ft | 460 kts | 195° |
| 2026-05-04 19:11 | 51.24538 | -7.66693 | 33044 ft | 461 kts | 195° |
| 2026-05-04 19:11 | 51.21455 | -7.68337 | 33194 ft | 461 kts | 195° |
| 2026-05-04 19:11 | 51.18449 | -7.69938 | 33338 ft | 462 kts | 196° |
| 2026-05-04 19:12 | 51.15360 | -7.71581 | 33483 ft | 462 kts | 196° |
| 2026-05-04 19:12 | 51.09247 | -7.74826 | 33770 ft | 463 kts | 196° |
| 2026-05-04 19:12 | 51.06189 | -7.76446 | 33895 ft | 464 kts | 196° |
| 2026-05-04 19:13 | 51.03128 | -7.78065 | 34026 ft | 464 kts | 196° |
| 2026-05-04 19:13 | 51.00063 | -7.79684 | 34147 ft | 465 kts | 196° |
| 2026-05-04 19:13 | 50.96990 | -7.81305 | 34257 ft | 465 kts | 196° |
| 2026-05-04 19:13 | 50.93923 | -7.82920 | 34370 ft | 465 kts | 196° |
| 2026-05-04 19:14 | 50.90852 | -7.84536 | 34477 ft | 465 kts | 196° |
| 2026-05-04 19:14 | 50.84703 | -7.87763 | 34670 ft | 466 kts | 196° |
| 2026-05-04 19:14 | 50.81624 | -7.89376 | 34775 ft | 466 kts | 196° |
| 2026-05-04 19:15 | 50.78545 | -7.90987 | 34878 ft | 466 kts | 196° |
| 2026-05-04 19:15 | 50.72384 | -7.94203 | 35068 ft | 466 kts | 196° |
| 2026-05-04 19:16 | 50.66220 | -7.97412 | 35243 ft | 467 kts | 196° |
| 2026-05-04 19:16 | 50.60500 | -8.00381 | 35397 ft | 467 kts | 197° |
| 2026-05-04 19:17 | 50.55361 | -8.03043 | 35522 ft | 468 kts | 197° |
| 2026-05-04 19:17 | 50.52280 | -8.04636 | 35726 ft | 464 kts | 197° |
| 2026-05-04 19:17 | 50.49208 | -8.06222 | 35798 ft | 465 kts | 197° |
| 2026-05-04 19:18 | 50.43039 | -8.09400 | 35824 ft | 468 kts | 197° |
| 2026-05-04 19:18 | 50.36832 | -8.12588 | 35929 ft | 469 kts | 197° |
| 2026-05-04 19:18 | 50.33731 | -8.14178 | 36038 ft | 468 kts | 197° |
| 2026-05-04 19:19 | 50.30630 | -8.15766 | 36059 ft | 469 kts | 197° |
| 2026-05-04 19:19 | 50.24420 | -8.18939 | 36068 ft | 471 kts | 197° |
| 2026-05-04 19:20 | 50.18180 | -8.22118 | 36068 ft | 473 kts | 197° |
| 2026-05-04 19:20 | 50.11916 | -8.25301 | 36065 ft | 474 kts | 197° |
| 2026-05-04 19:21 | 50.05632 | -8.28486 | 36061 ft | 475 kts | 197° |
| 2026-05-04 19:21 | 49.99331 | -8.31669 | 36053 ft | 476 kts | 197° |
| 2026-05-04 19:22 | 49.93036 | -8.34842 | 36052 ft | 476 kts | 197° |
| 2026-05-04 19:22 | 49.86749 | -8.38002 | 36051 ft | 475 kts | 197° |
| 2026-05-04 19:23 | 49.80467 | -8.41150 | 36052 ft | 474 kts | 197° |
| 2026-05-04 19:23 | 49.74206 | -8.44280 | 36048 ft | 472 kts | 197° |
| 2026-05-04 19:24 | 49.67961 | -8.47393 | 36050 ft | 471 kts | 197° |
| 2026-05-04 19:24 | 49.61724 | -8.50494 | 36045 ft | 470 kts | 197° |
| 2026-05-04 19:25 | 49.55500 | -8.53579 | 36049 ft | 469 kts | 197° |
| 2026-05-04 19:25 | 49.49288 | -8.56651 | 36047 ft | 469 kts | 197° |
| 2026-05-04 19:26 | 49.43083 | -8.59711 | 36050 ft | 469 kts | 197° |
| 2026-05-04 19:26 | 49.36869 | -8.62767 | 36049 ft | 469 kts | 197° |
| 2026-05-04 19:27 | 49.30647 | -8.65794 | 36044 ft | 469 kts | 194° |
| 2026-05-04 19:27 | 49.24304 | -8.68168 | 36048 ft | 469 kts | 191° |
| 2026-05-04 19:28 | 49.17920 | -8.70274 | 36041 ft | 470 kts | 191° |
| 2026-05-04 19:28 | 49.11519 | -8.72414 | 36044 ft | 471 kts | 191° |
| 2026-05-04 19:29 | 49.04465 | -8.74837 | 36044 ft | 472 kts | 192° |
| 2026-05-04 19:29 | 48.98050 | -8.77061 | 36037 ft | 473 kts | 192° |
| 2026-05-04 19:30 | 48.91628 | -8.79285 | 36037 ft | 474 kts | 192° |
| 2026-05-04 19:30 | 48.85199 | -8.81502 | 36037 ft | 474 kts | 192° |
| 2026-05-04 19:31 | 48.78723 | -8.83729 | 36035 ft | 474 kts | 192° |
| 2026-05-04 19:31 | 48.73382 | -8.85561 | 36033 ft | 473 kts | 192° |
| 2026-05-04 19:32 | 48.66958 | -8.87758 | 36033 ft | 473 kts | 192° |
| 2026-05-04 19:32 | 48.60545 | -8.89947 | 36031 ft | 472 kts | 192° |
| 2026-05-04 19:33 | 48.54149 | -8.92123 | 36026 ft | 471 kts | 192° |
| 2026-05-04 19:33 | 48.47756 | -8.94293 | 36032 ft | 470 kts | 192° |
| 2026-05-04 19:34 | 48.41383 | -8.96451 | 36030 ft | 469 kts | 192° |
| 2026-05-04 19:34 | 48.35018 | -8.98600 | 36030 ft | 469 kts | 192° |
| 2026-05-04 19:35 | 48.28661 | -9.00741 | 36028 ft | 468 kts | 192° |
| 2026-05-04 19:35 | 48.22302 | -9.02878 | 36031 ft | 468 kts | 192° |
| 2026-05-04 19:36 | 48.15945 | -9.05008 | 36031 ft | 468 kts | 192° |
| 2026-05-04 19:36 | 48.09586 | -9.07134 | 36033 ft | 469 kts | 192° |
| 2026-05-04 19:37 | 48.03217 | -9.09258 | 36031 ft | 469 kts | 192° |
| 2026-05-04 19:37 | 47.96834 | -9.11380 | 36032 ft | 470 kts | 192° |
| 2026-05-04 19:38 | 47.90434 | -9.13503 | 36038 ft | 471 kts | 192° |
| 2026-05-04 19:38 | 47.84038 | -9.15620 | 36039 ft | 472 kts | 192° |
| 2026-05-04 19:39 | 47.77621 | -9.17738 | 36026 ft | 473 kts | 192° |
| 2026-05-04 19:39 | 47.71192 | -9.19854 | 36041 ft | 473 kts | 192° |
| 2026-05-04 19:40 | 47.64756 | -9.21968 | 36035 ft | 474 kts | 192° |
| 2026-05-04 19:40 | 47.58309 | -9.24080 | 36027 ft | 474 kts | 192° |
| 2026-05-04 19:41 | 47.51857 | -9.26188 | 36033 ft | 475 kts | 192° |
| 2026-05-04 19:41 | 47.45404 | -9.28291 | 36026 ft | 475 kts | 192° |
| 2026-05-04 19:42 | 47.38955 | -9.30388 | 36028 ft | 474 kts | 192° |
| 2026-05-04 19:42 | 47.32513 | -9.32477 | 36028 ft | 474 kts | 192° |
| 2026-05-04 19:43 | 47.26066 | -9.34562 | 36035 ft | 474 kts | 192° |
| 2026-05-04 19:43 | 47.19630 | -9.36639 | 36028 ft | 473 kts | 192° |
| 2026-05-04 19:44 | 47.13203 | -9.38708 | 36038 ft | 473 kts | 192° |
| 2026-05-04 19:44 | 47.06777 | -9.40771 | 36036 ft | 472 kts | 192° |
| 2026-05-04 19:45 | 47.00355 | -9.42828 | 36033 ft | 472 kts | 192° |
| 2026-05-04 19:45 | 46.93944 | -9.44876 | 36035 ft | 472 kts | 192° |
| 2026-05-04 19:46 | 46.87532 | -9.46920 | 36034 ft | 471 kts | 192° |
| 2026-05-04 19:46 | 46.81123 | -9.48957 | 36037 ft | 471 kts | 192° |
| 2026-05-04 19:47 | 46.74715 | -9.50990 | 36039 ft | 471 kts | 192° |
| 2026-05-04 19:47 | 46.68302 | -9.53019 | 36038 ft | 472 kts | 192° |
| 2026-05-04 19:48 | 46.61889 | -9.55043 | 36034 ft | 472 kts | 192° |
| 2026-05-04 19:48 | 46.55464 | -9.57066 | 36041 ft | 472 kts | 192° |
| 2026-05-04 19:49 | 46.49040 | -9.59084 | 36034 ft | 473 kts | 192° |
| 2026-05-04 19:49 | 46.42604 | -9.61100 | 36032 ft | 473 kts | 192° |
| 2026-05-04 19:50 | 46.36165 | -9.63113 | 36035 ft | 474 kts | 192° |
| 2026-05-04 19:50 | 46.29713 | -9.65125 | 36033 ft | 474 kts | 192° |
| 2026-05-04 19:51 | 46.23256 | -9.67134 | 36037 ft | 475 kts | 192° |
| 2026-05-04 19:51 | 46.16794 | -9.69139 | 36032 ft | 475 kts | 192° |
| 2026-05-04 19:52 | 46.10331 | -9.71140 | 36033 ft | 475 kts | 192° |
| 2026-05-04 19:52 | 46.03864 | -9.73137 | 36041 ft | 475 kts | 192° |
| 2026-05-04 19:53 | 45.97390 | -9.75132 | 36036 ft | 475 kts | 192° |
| 2026-05-04 19:53 | 45.90919 | -9.77121 | 36037 ft | 475 kts | 192° |
| 2026-05-04 19:54 | 45.84451 | -9.79104 | 36036 ft | 475 kts | 192° |
| 2026-05-04 19:54 | 45.77981 | -9.81083 | 36040 ft | 475 kts | 192° |
| 2026-05-04 19:55 | 45.71518 | -9.83056 | 36032 ft | 475 kts | 192° |
| 2026-05-04 19:55 | 45.65052 | -9.85024 | 36037 ft | 475 kts | 192° |
| 2026-05-04 19:56 | 45.58598 | -9.86984 | 36044 ft | 474 kts | 193° |
| 2026-05-04 19:56 | 45.52140 | -9.88941 | 36037 ft | 474 kts | 193° |
| 2026-05-04 19:57 | 45.45686 | -9.90893 | 36046 ft | 474 kts | 193° |
| 2026-05-04 19:57 | 45.39233 | -9.92839 | 36041 ft | 474 kts | 193° |
| 2026-05-04 19:58 | 45.32788 | -9.94778 | 36041 ft | 474 kts | 193° |
| 2026-05-04 19:58 | 45.26335 | -9.96716 | 36046 ft | 474 kts | 193° |
| 2026-05-04 19:59 | 45.19884 | -9.98648 | 36047 ft | 474 kts | 193° |
| 2026-05-04 19:59 | 45.13431 | -10.00576 | 36038 ft | 474 kts | 193° |
| 2026-05-04 20:00 | 45.06974 | -10.02501 | 36050 ft | 474 kts | 193° |
| 2026-05-04 20:00 | 45.00516 | -10.04422 | 36044 ft | 474 kts | 193° |
| 2026-05-04 20:01 | 44.94089 | -10.06330 | 36040 ft | 474 kts | 193° |
| 2026-05-04 20:01 | 44.87627 | -10.08243 | 36050 ft | 474 kts | 193° |
| 2026-05-04 20:02 | 44.81166 | -10.10151 | 36047 ft | 475 kts | 193° |
| 2026-05-04 20:02 | 44.74737 | -10.12046 | 36049 ft | 475 kts | 193° |
| 2026-05-04 20:03 | 44.68274 | -10.13947 | 36050 ft | 475 kts | 193° |
| 2026-05-04 20:03 | 44.61780 | -10.15852 | 36048 ft | 475 kts | 193° |
| 2026-05-04 20:04 | 44.55359 | -10.17731 | 36051 ft | 475 kts | 193° |
| 2026-05-04 20:04 | 44.48897 | -10.19619 | 36052 ft | 474 kts | 193° |
| 2026-05-04 20:05 | 44.42430 | -10.21503 | 36050 ft | 474 kts | 193° |
| 2026-05-04 20:05 | 44.35929 | -10.23393 | 36056 ft | 474 kts | 193° |
| 2026-05-04 20:06 | 44.29476 | -10.25265 | 36060 ft | 474 kts | 193° |
| 2026-05-04 20:06 | 44.23160 | -10.27093 | 36057 ft | 473 kts | 193° |
| 2026-05-04 20:07 | 44.16717 | -10.28954 | 36060 ft | 473 kts | 193° |
| 2026-05-04 20:07 | 44.10272 | -10.30811 | 36061 ft | 472 kts | 193° |
| 2026-05-04 20:08 | 44.03832 | -10.32662 | 36070 ft | 472 kts | 193° |
| 2026-05-04 20:08 | 43.97406 | -10.34506 | 36072 ft | 472 kts | 194° |
| 2026-05-04 20:09 | 43.90976 | -10.36346 | 36071 ft | 472 kts | 194° |
| 2026-05-04 20:09 | 43.84551 | -10.38182 | 36072 ft | 471 kts | 194° |
| 2026-05-04 20:10 | 43.79211 | -10.39704 | 36075 ft | 471 kts | 194° |
| 2026-05-04 20:10 | 43.72801 | -10.41527 | 36078 ft | 471 kts | 194° |
| 2026-05-04 20:11 | 43.66379 | -10.43350 | 36078 ft | 471 kts | 194° |
| 2026-05-04 20:11 | 43.59955 | -10.45169 | 36085 ft | 471 kts | 194° |
| 2026-05-04 20:12 | 43.53537 | -10.46983 | 36087 ft | 471 kts | 194° |
| 2026-05-04 20:12 | 43.47123 | -10.48792 | 36089 ft | 471 kts | 194° |
| 2026-05-04 20:13 | 43.40700 | -10.50599 | 36092 ft | 471 kts | 194° |
| 2026-05-04 20:13 | 43.34287 | -10.52400 | 36090 ft | 471 kts | 194° |
| 2026-05-04 20:14 | 43.27868 | -10.54198 | 36095 ft | 470 kts | 194° |
| 2026-05-04 20:14 | 43.21455 | -10.55991 | 36099 ft | 470 kts | 194° |
| 2026-05-04 20:15 | 43.15047 | -10.57779 | 36099 ft | 470 kts | 194° |
| 2026-05-04 20:15 | 43.08642 | -10.59562 | 36099 ft | 470 kts | 194° |
| 2026-05-04 20:16 | 43.02240 | -10.61340 | 36102 ft | 469 kts | 194° |
| 2026-05-04 20:16 | 42.95844 | -10.63113 | 36100 ft | 469 kts | 195° |
| 2026-05-04 20:17 | 42.89463 | -10.64878 | 36104 ft | 468 kts | 195° |
| 2026-05-04 20:17 | 42.83074 | -10.66641 | 36109 ft | 468 kts | 195° |
| 2026-05-04 20:18 | 42.76701 | -10.68397 | 36111 ft | 467 kts | 195° |
| 2026-05-04 20:18 | 42.70327 | -10.70149 | 36110 ft | 467 kts | 195° |
| 2026-05-04 20:19 | 42.63960 | -10.71895 | 36114 ft | 466 kts | 195° |
| 2026-05-04 20:19 | 42.57602 | -10.73636 | 36116 ft | 466 kts | 195° |
| 2026-05-04 20:20 | 42.51252 | -10.75370 | 36119 ft | 465 kts | 195° |
| 2026-05-04 20:20 | 42.44911 | -10.77099 | 36119 ft | 465 kts | 195° |
| 2026-05-04 20:21 | 42.38574 | -10.78824 | 36121 ft | 464 kts | 195° |
| 2026-05-04 20:21 | 42.29097 | -10.81483 | 36117 ft | 461 kts | 201° |
| 2026-05-04 20:22 | 42.23285 | -10.84842 | 36133 ft | 452 kts | 212° |
| 2026-05-04 20:22 | 42.17701 | -10.88727 | 36133 ft | 452 kts | 212° |
| 2026-05-04 20:23 | 42.12106 | -10.92597 | 36119 ft | 452 kts | 212° |
| 2026-05-04 20:23 | 42.06492 | -10.96425 | 36133 ft | 452 kts | 212° |
| 2026-05-04 20:24 | 42.00867 | -11.00232 | 36136 ft | 452 kts | 212° |
| 2026-05-04 20:24 | 41.95246 | -11.04023 | 36137 ft | 452 kts | 212° |
| 2026-05-04 20:25 | 41.89623 | -11.07808 | 36136 ft | 452 kts | 212° |
| 2026-05-04 20:25 | 41.84000 | -11.11587 | 36144 ft | 452 kts | 212° |
| 2026-05-04 20:26 | 41.78381 | -11.15357 | 36138 ft | 452 kts | 212° |
| 2026-05-04 20:26 | 41.72759 | -11.19121 | 36141 ft | 451 kts | 212° |
| 2026-05-04 20:27 | 41.67141 | -11.22876 | 36142 ft | 451 kts | 213° |
| 2026-05-04 20:27 | 41.61529 | -11.26618 | 36145 ft | 451 kts | 213° |
| 2026-05-04 20:28 | 41.55919 | -11.30352 | 36147 ft | 450 kts | 213° |
| 2026-05-04 20:28 | 41.50315 | -11.34074 | 36147 ft | 450 kts | 213° |
| 2026-05-04 20:29 | 41.44722 | -11.37783 | 36143 ft | 449 kts | 213° |
| 2026-05-04 20:29 | 41.39132 | -11.41482 | 36151 ft | 448 kts | 213° |
| 2026-05-04 20:30 | 41.33559 | -11.45162 | 36148 ft | 447 kts | 213° |
| 2026-05-04 20:30 | 41.27990 | -11.48833 | 36153 ft | 446 kts | 213° |
| 2026-05-04 20:31 | 41.22423 | -11.52496 | 36152 ft | 445 kts | 213° |
| 2026-05-04 20:31 | 41.16875 | -11.56139 | 36153 ft | 445 kts | 213° |
| 2026-05-04 20:32 | 41.11338 | -11.59768 | 36153 ft | 444 kts | 213° |
| 2026-05-04 20:32 | 41.05810 | -11.63385 | 36160 ft | 443 kts | 213° |
| 2026-05-04 20:33 | 41.00300 | -11.66983 | 36158 ft | 442 kts | 213° |
| 2026-05-04 20:33 | 40.94778 | -11.70582 | 36161 ft | 441 kts | 214° |
| 2026-05-04 20:34 | 40.89272 | -11.74164 | 36165 ft | 441 kts | 214° |
| 2026-05-04 20:34 | 40.83772 | -11.77736 | 36166 ft | 440 kts | 214° |
| 2026-05-04 20:35 | 40.78276 | -11.81298 | 36165 ft | 440 kts | 214° |
| 2026-05-04 20:35 | 40.72774 | -11.84857 | 36167 ft | 439 kts | 214° |
| 2026-05-04 20:36 | 40.67286 | -11.88401 | 36169 ft | 439 kts | 214° |
| 2026-05-04 20:36 | 40.61802 | -11.91935 | 36168 ft | 438 kts | 214° |
| 2026-05-04 20:37 | 40.56327 | -11.95458 | 36173 ft | 438 kts | 214° |
| 2026-05-04 20:37 | 40.50856 | -11.98971 | 36169 ft | 437 kts | 214° |
| 2026-05-04 20:38 | 40.45389 | -12.02475 | 36176 ft | 437 kts | 214° |
| 2026-05-04 20:38 | 40.39933 | -12.05966 | 36175 ft | 436 kts | 214° |
| 2026-05-04 20:39 | 40.34482 | -12.09447 | 36171 ft | 435 kts | 214° |
| 2026-05-04 20:39 | 40.29037 | -12.12919 | 36171 ft | 435 kts | 214° |
| 2026-05-04 20:40 | 40.23600 | -12.16380 | 36178 ft | 434 kts | 214° |
| 2026-05-04 20:40 | 40.18173 | -12.19827 | 36179 ft | 433 kts | 214° |
| 2026-05-04 20:41 | 40.12752 | -12.23264 | 36182 ft | 433 kts | 214° |
| 2026-05-04 20:41 | 40.07342 | -12.26688 | 36182 ft | 432 kts | 214° |
| 2026-05-04 20:42 | 40.01934 | -12.30105 | 36183 ft | 432 kts | 213° |
| 2026-05-04 20:42 | 39.96522 | -12.33519 | 36189 ft | 431 kts | 213° |
| 2026-05-04 20:43 | 39.91119 | -12.36921 | 36190 ft | 431 kts | 213° |
| 2026-05-04 20:43 | 39.85723 | -12.40313 | 36196 ft | 430 kts | 213° |
| 2026-05-04 20:44 | 39.80328 | -12.43698 | 36192 ft | 430 kts | 213° |
| 2026-05-04 20:44 | 39.74941 | -12.47072 | 36182 ft | 430 kts | 213° |
| 2026-05-04 20:45 | 39.69552 | -12.50441 | 36189 ft | 430 kts | 213° |
| 2026-05-04 20:45 | 39.64166 | -12.53803 | 36190 ft | 429 kts | 213° |
| 2026-05-04 20:46 | 39.58784 | -12.57156 | 36191 ft | 429 kts | 213° |
| 2026-05-04 20:46 | 39.53408 | -12.60500 | 36194 ft | 429 kts | 213° |
| 2026-05-04 20:47 | 39.48037 | -12.63835 | 36195 ft | 428 kts | 213° |
| 2026-05-04 20:47 | 39.42661 | -12.67167 | 36199 ft | 428 kts | 212° |
| 2026-05-04 20:48 | 39.37288 | -12.70493 | 36197 ft | 428 kts | 212° |
| 2026-05-04 20:48 | 39.31910 | -12.73815 | 36199 ft | 428 kts | 212° |
| 2026-05-04 20:49 | 39.26534 | -12.77130 | 36203 ft | 428 kts | 212° |
| 2026-05-04 20:49 | 39.21152 | -12.80443 | 36200 ft | 429 kts | 212° |
| 2026-05-04 20:50 | 39.16674 | -12.83195 | 36205 ft | 429 kts | 212° |
| 2026-05-04 20:50 | 39.11291 | -12.86499 | 36202 ft | 429 kts | 212° |
| 2026-05-04 20:51 | 39.05900 | -12.89802 | 36202 ft | 429 kts | 211° |
| 2026-05-04 20:51 | 39.00502 | -12.93103 | 36203 ft | 429 kts | 211° |
| 2026-05-04 20:52 | 38.95103 | -12.96400 | 36205 ft | 430 kts | 211° |
| 2026-05-04 20:52 | 38.89701 | -12.99693 | 36204 ft | 430 kts | 211° |
| 2026-05-04 20:53 | 38.84298 | -13.02980 | 36204 ft | 430 kts | 211° |
| 2026-05-04 20:53 | 38.78890 | -13.06265 | 36206 ft | 430 kts | 211° |
| 2026-05-04 20:54 | 38.73482 | -13.09544 | 36204 ft | 430 kts | 211° |
| 2026-05-04 20:54 | 38.68077 | -13.12817 | 36211 ft | 430 kts | 211° |
| 2026-05-04 20:55 | 38.62670 | -13.16085 | 36208 ft | 429 kts | 211° |
| 2026-05-04 20:55 | 38.57271 | -13.19342 | 36207 ft | 429 kts | 211° |
| 2026-05-04 20:56 | 38.51874 | -13.22593 | 36210 ft | 428 kts | 211° |
| 2026-05-04 20:56 | 38.46487 | -13.25832 | 36210 ft | 428 kts | 211° |
| 2026-05-04 20:57 | 38.41111 | -13.29060 | 36205 ft | 427 kts | 211° |
| 2026-05-04 20:57 | 38.35742 | -13.32278 | 36206 ft | 426 kts | 211° |
| 2026-05-04 20:58 | 38.30386 | -13.35483 | 36209 ft | 425 kts | 211° |
| 2026-05-04 20:58 | 38.25040 | -13.38677 | 36208 ft | 424 kts | 212° |
| 2026-05-04 20:59 | 38.19708 | -13.41857 | 36210 ft | 423 kts | 212° |
| 2026-05-04 20:59 | 38.14383 | -13.45028 | 36212 ft | 422 kts | 212° |
| 2026-05-04 21:00 | 38.09070 | -13.48187 | 36210 ft | 421 kts | 212° |
| 2026-05-04 21:00 | 38.03764 | -13.51336 | 36206 ft | 420 kts | 212° |
| 2026-05-04 21:01 | 37.98471 | -13.54473 | 36210 ft | 420 kts | 212° |
| 2026-05-04 21:01 | 37.93183 | -13.57602 | 36210 ft | 419 kts | 212° |
| 2026-05-04 21:02 | 37.87898 | -13.60724 | 36218 ft | 419 kts | 212° |
| 2026-05-04 21:02 | 37.82624 | -13.63835 | 36204 ft | 418 kts | 212° |
| 2026-05-04 21:03 | 37.77347 | -13.66943 | 36213 ft | 418 kts | 212° |
| 2026-05-04 21:03 | 37.72068 | -13.70046 | 36209 ft | 418 kts | 212° |
| 2026-05-04 21:04 | 37.66790 | -13.73145 | 36208 ft | 418 kts | 212° |
| 2026-05-04 21:04 | 37.61511 | -13.76239 | 36204 ft | 418 kts | 212° |
| 2026-05-04 21:05 | 37.56229 | -13.79330 | 36212 ft | 419 kts | 212° |
| 2026-05-04 21:05 | 37.50944 | -13.82418 | 36214 ft | 419 kts | 211° |
| 2026-05-04 21:06 | 37.45655 | -13.85504 | 36210 ft | 419 kts | 211° |
| 2026-05-04 21:06 | 37.40360 | -13.88587 | 36211 ft | 419 kts | 211° |
| 2026-05-04 21:07 | 37.35064 | -13.91667 | 36214 ft | 420 kts | 211° |
| 2026-05-04 21:07 | 37.29800 | -13.94723 | 36213 ft | 419 kts | 211° |
| 2026-05-04 21:08 | 37.24504 | -13.97793 | 36213 ft | 419 kts | 211° |
| 2026-05-04 21:08 | 37.19206 | -14.00859 | 36216 ft | 419 kts | 211° |
| 2026-05-04 21:09 | 37.13914 | -14.03917 | 36219 ft | 419 kts | 211° |
| 2026-05-04 21:09 | 37.08621 | -14.06971 | 36215 ft | 419 kts | 211° |
| 2026-05-04 21:10 | 37.03326 | -14.10021 | 36215 ft | 419 kts | 211° |
| 2026-05-04 21:10 | 36.98000 | -14.13085 | 36216 ft | 419 kts | 211° |
| 2026-05-04 21:11 | 36.92741 | -14.16106 | 36216 ft | 419 kts | 211° |
| 2026-05-04 21:11 | 36.87414 | -14.19161 | 36218 ft | 419 kts | 210° |
| 2026-05-04 21:12 | 36.82146 | -14.22177 | 36219 ft | 419 kts | 210° |
| 2026-05-04 21:12 | 36.76841 | -14.25211 | 36220 ft | 420 kts | 210° |
| 2026-05-04 21:13 | 36.71523 | -14.28247 | 36219 ft | 421 kts | 210° |
| 2026-05-04 21:13 | 36.66193 | -14.31284 | 36220 ft | 421 kts | 210° |
| 2026-05-04 21:14 | 36.60854 | -14.34323 | 36218 ft | 422 kts | 210° |
| 2026-05-04 21:14 | 36.55504 | -14.37363 | 36216 ft | 423 kts | 210° |
| 2026-05-04 21:15 | 36.50148 | -14.40401 | 36219 ft | 424 kts | 210° |
| 2026-05-04 21:15 | 36.44782 | -14.43441 | 36220 ft | 424 kts | 210° |
| 2026-05-04 21:16 | 36.39417 | -14.46475 | 36217 ft | 424 kts | 210° |
| 2026-05-04 21:16 | 36.34053 | -14.49504 | 36218 ft | 424 kts | 210° |
| 2026-05-04 21:17 | 36.28689 | -14.52528 | 36217 ft | 423 kts | 210° |
| 2026-05-04 21:17 | 36.23340 | -14.55540 | 36213 ft | 422 kts | 210° |
| 2026-05-04 21:18 | 36.17995 | -14.58544 | 36217 ft | 421 kts | 210° |
| 2026-05-04 21:18 | 36.12672 | -14.61533 | 36214 ft | 420 kts | 210° |
| 2026-05-04 21:19 | 36.07447 | -14.64461 | 36214 ft | 419 kts | 210° |
| 2026-05-04 21:19 | 36.02079 | -14.67466 | 36214 ft | 418 kts | 210° |
| 2026-05-04 21:20 | 35.96792 | -14.70420 | 36214 ft | 417 kts | 209° |
| 2026-05-04 21:20 | 35.91511 | -14.73368 | 36209 ft | 416 kts | 209° |
| 2026-05-04 21:21 | 35.86238 | -14.76306 | 36211 ft | 416 kts | 209° |
| 2026-05-04 21:21 | 35.80961 | -14.79243 | 36127 ft | 419 kts | 209° |
| 2026-05-04 21:22 | 35.78289 | -14.80731 | 35944 ft | 422 kts | 209° |
| 2026-05-04 21:22 | 35.75613 | -14.82217 | 35799 ft | 422 kts | 209° |
| 2026-05-04 21:22 | 35.72943 | -14.83697 | 35632 ft | 418 kts | 209° |
| 2026-05-04 21:22 | 35.70308 | -14.85155 | 35475 ft | 413 kts | 209° |
| 2026-05-04 21:23 | 35.67691 | -14.86603 | 35329 ft | 412 kts | 209° |
| 2026-05-04 21:23 | 35.65075 | -14.88053 | 35184 ft | 413 kts | 209° |
| 2026-05-04 21:23 | 35.62459 | -14.89501 | 35035 ft | 413 kts | 209° |
| 2026-05-04 21:23 | 35.59838 | -14.90951 | 34889 ft | 413 kts | 209° |
| 2026-05-04 21:24 | 35.57219 | -14.92399 | 34755 ft | 413 kts | 209° |
| 2026-05-04 21:24 | 35.54599 | -14.93846 | 34598 ft | 413 kts | 209° |
| 2026-05-04 21:24 | 35.51982 | -14.95290 | 34453 ft | 413 kts | 209° |
| 2026-05-04 21:24 | 35.49362 | -14.96735 | 34286 ft | 413 kts | 209° |
| 2026-05-04 21:25 | 35.46738 | -14.98181 | 34098 ft | 413 kts | 209° |
| 2026-05-04 21:25 | 35.44119 | -14.99623 | 33890 ft | 413 kts | 209° |
| 2026-05-04 21:25 | 35.41500 | -15.01064 | 33690 ft | 412 kts | 209° |
| 2026-05-04 21:25 | 35.38893 | -15.02496 | 33481 ft | 410 kts | 209° |
| 2026-05-04 21:26 | 35.36298 | -15.03921 | 33286 ft | 408 kts | 209° |
| 2026-05-04 21:26 | 35.33711 | -15.05341 | 33074 ft | 406 kts | 209° |
| 2026-05-04 21:26 | 35.31144 | -15.06748 | 32877 ft | 403 kts | 209° |
| 2026-05-04 21:26 | 35.28589 | -15.08148 | 32675 ft | 401 kts | 209° |
| 2026-05-04 21:27 | 35.26048 | -15.09540 | 32477 ft | 399 kts | 209° |
| 2026-05-04 21:27 | 35.23529 | -15.10919 | 32282 ft | 397 kts | 209° |
| 2026-05-04 21:27 | 35.21016 | -15.12294 | 32086 ft | 395 kts | 209° |
| 2026-05-04 21:27 | 35.18512 | -15.13664 | 31901 ft | 393 kts | 209° |
| 2026-05-04 21:28 | 35.16021 | -15.15025 | 31702 ft | 392 kts | 209° |
| 2026-05-04 21:28 | 35.13536 | -15.16382 | 31518 ft | 391 kts | 209° |
| 2026-05-04 21:28 | 35.11057 | -15.17735 | 31327 ft | 390 kts | 209° |
| 2026-05-04 21:28 | 35.08584 | -15.19084 | 31149 ft | 389 kts | 209° |
| 2026-05-04 21:29 | 35.06116 | -15.20429 | 30962 ft | 389 kts | 209° |
| 2026-05-04 21:29 | 35.03646 | -15.21775 | 30786 ft | 388 kts | 209° |
| 2026-05-04 21:29 | 35.01180 | -15.23117 | 30598 ft | 388 kts | 209° |
| 2026-05-04 21:29 | 34.98714 | -15.24459 | 30420 ft | 388 kts | 208° |
| 2026-05-04 21:30 | 34.96251 | -15.25798 | 30232 ft | 388 kts | 208° |
| 2026-05-04 21:30 | 34.93789 | -15.27135 | 30029 ft | 388 kts | 208° |
| 2026-05-04 21:30 | 34.91322 | -15.28474 | 29818 ft | 388 kts | 208° |
| 2026-05-04 21:30 | 34.88859 | -15.29810 | 29613 ft | 387 kts | 208° |
| 2026-05-04 21:31 | 34.84774 | -15.32023 | 29259 ft | 386 kts | 208° |
| 2026-05-04 21:31 | 34.82289 | -15.33368 | 29059 ft | 385 kts | 208° |
| 2026-05-04 21:31 | 34.79846 | -15.34690 | 28852 ft | 384 kts | 208° |
| 2026-05-04 21:32 | 34.77411 | -15.36007 | 28648 ft | 383 kts | 208° |
| 2026-05-04 21:32 | 34.74982 | -15.37319 | 28445 ft | 382 kts | 208° |
| 2026-05-04 21:32 | 34.72558 | -15.38628 | 28252 ft | 380 kts | 208° |
| 2026-05-04 21:32 | 34.70963 | -15.39488 | 28126 ft | 379 kts | 208° |
| 2026-05-04 21:33 | 34.60571 | -15.45089 | 27336 ft | 373 kts | 208° |
| 2026-05-04 21:34 | 34.58204 | -15.46362 | 27157 ft | 372 kts | 207° |
| 2026-05-04 21:34 | 34.55842 | -15.47632 | 26980 ft | 371 kts | 207° |
| 2026-05-04 21:34 | 34.53488 | -15.48897 | 26806 ft | 370 kts | 207° |
| 2026-05-04 21:34 | 34.51139 | -15.50159 | 26626 ft | 369 kts | 207° |
| 2026-05-04 21:35 | 34.48795 | -15.51417 | 26455 ft | 368 kts | 207° |
| 2026-05-04 21:35 | 34.46454 | -15.52673 | 26280 ft | 368 kts | 207° |
| 2026-05-04 21:35 | 34.44121 | -15.53923 | 26109 ft | 367 kts | 207° |
| 2026-05-04 21:35 | 34.41785 | -15.55175 | 25941 ft | 366 kts | 207° |
| 2026-05-04 21:36 | 34.39454 | -15.56422 | 25772 ft | 366 kts | 207° |
| 2026-05-04 21:36 | 34.37131 | -15.57665 | 25603 ft | 365 kts | 207° |
| 2026-05-04 21:36 | 34.34810 | -15.58906 | 25437 ft | 364 kts | 207° |
| 2026-05-04 21:36 | 34.32502 | -15.60139 | 25269 ft | 363 kts | 207° |
| 2026-05-04 21:37 | 34.30193 | -15.61372 | 25105 ft | 363 kts | 207° |
| 2026-05-04 21:37 | 34.27887 | -15.62603 | 24934 ft | 362 kts | 207° |
| 2026-05-04 21:37 | 34.25590 | -15.63828 | 24772 ft | 361 kts | 207° |
| 2026-05-04 21:37 | 34.23298 | -15.65050 | 24610 ft | 360 kts | 207° |
| 2026-05-04 21:38 | 34.21016 | -15.66266 | 24449 ft | 358 kts | 207° |
| 2026-05-04 21:38 | 34.18732 | -15.67482 | 24281 ft | 357 kts | 207° |
| 2026-05-04 21:38 | 34.16462 | -15.68690 | 24123 ft | 356 kts | 206° |
| 2026-05-04 21:38 | 34.14199 | -15.69893 | 23966 ft | 355 kts | 207° |
| 2026-05-04 21:39 | 34.11940 | -15.71094 | 23808 ft | 354 kts | 206° |
| 2026-05-04 21:39 | 34.09694 | -15.72287 | 23621 ft | 353 kts | 206° |
| 2026-05-04 21:39 | 34.07450 | -15.73479 | 23418 ft | 352 kts | 206° |
| 2026-05-04 21:39 | 34.05209 | -15.74668 | 23172 ft | 352 kts | 206° |
| 2026-05-04 21:40 | 34.02965 | -15.75859 | 22914 ft | 353 kts | 206° |
| 2026-05-04 21:40 | 34.00716 | -15.77051 | 22642 ft | 353 kts | 206° |
| 2026-05-04 21:40 | 33.98465 | -15.78243 | 22387 ft | 353 kts | 206° |
| 2026-05-04 21:40 | 33.96219 | -15.79432 | 22131 ft | 352 kts | 206° |
| 2026-05-04 21:41 | 33.93979 | -15.80617 | 21875 ft | 351 kts | 206° |
| 2026-05-04 21:41 | 33.91745 | -15.81798 | 21613 ft | 349 kts | 206° |
| 2026-05-04 21:41 | 33.89529 | -15.82968 | 21353 ft | 347 kts | 206° |
| 2026-05-04 21:41 | 33.87320 | -15.84135 | 21104 ft | 345 kts | 206° |
| 2026-05-04 21:42 | 33.85131 | -15.85290 | 20858 ft | 343 kts | 206° |
| 2026-05-04 21:42 | 33.82956 | -15.86438 | 20609 ft | 340 kts | 206° |
| 2026-05-04 21:42 | 33.80793 | -15.87579 | 20362 ft | 338 kts | 206° |
| 2026-05-04 21:42 | 33.78647 | -15.88710 | 20115 ft | 336 kts | 206° |
| 2026-05-04 21:43 | 33.76514 | -15.89834 | 19879 ft | 334 kts | 206° |
| 2026-05-04 21:43 | 33.74390 | -15.90953 | 19642 ft | 332 kts | 206° |
| 2026-05-04 21:43 | 33.72276 | -15.92066 | 19399 ft | 331 kts | 206° |
| 2026-05-04 21:43 | 33.70173 | -15.93171 | 19165 ft | 329 kts | 205° |
| 2026-05-04 21:44 | 33.68080 | -15.94271 | 18933 ft | 328 kts | 205° |
| 2026-05-04 21:44 | 33.66016 | -15.95417 | 18697 ft | 326 kts | 210° |
| 2026-05-04 21:44 | 33.64072 | -15.96800 | 18473 ft | 324 kts | 213° |
| 2026-05-04 21:44 | 33.62189 | -15.98273 | 18209 ft | 323 kts | 214° |
| 2026-05-04 21:45 | 33.60319 | -15.99763 | 17947 ft | 322 kts | 214° |
| 2026-05-04 21:45 | 33.58453 | -16.01241 | 17686 ft | 321 kts | 214° |
| 2026-05-04 21:45 | 33.56586 | -16.02708 | 17420 ft | 321 kts | 214° |
| 2026-05-04 21:45 | 33.54717 | -16.04162 | 17152 ft | 320 kts | 214° |
| 2026-05-04 21:46 | 33.52842 | -16.05611 | 16914 ft | 322 kts | 214° |
| 2026-05-04 21:46 | 33.50952 | -16.07068 | 16662 ft | 324 kts | 214° |
| 2026-05-04 21:46 | 33.49059 | -16.08520 | 16407 ft | 322 kts | 213° |
| 2026-05-04 21:46 | 33.47187 | -16.09954 | 16156 ft | 319 kts | 213° |
| 2026-05-04 21:47 | 33.45324 | -16.11379 | 15902 ft | 317 kts | 213° |
| 2026-05-04 21:47 | 33.43467 | -16.12798 | 15651 ft | 316 kts | 213° |
| 2026-05-04 21:47 | 33.41622 | -16.14207 | 15407 ft | 314 kts | 213° |
| 2026-05-04 21:47 | 33.39788 | -16.15607 | 15160 ft | 312 kts | 213° |
| 2026-05-04 21:48 | 33.37965 | -16.16997 | 14919 ft | 311 kts | 213° |
| 2026-05-04 21:48 | 33.36146 | -16.18383 | 14677 ft | 310 kts | 213° |
| 2026-05-04 21:48 | 33.34329 | -16.19767 | 14436 ft | 310 kts | 213° |
| 2026-05-04 21:48 | 33.32516 | -16.21149 | 14200 ft | 309 kts | 213° |
| 2026-05-04 21:49 | 33.30710 | -16.22524 | 13965 ft | 309 kts | 212° |
| 2026-05-04 21:49 | 33.28903 | -16.23898 | 13716 ft | 309 kts | 212° |
| 2026-05-04 21:49 | 33.27080 | -16.25284 | 13457 ft | 311 kts | 212° |
| 2026-05-04 21:49 | 33.25252 | -16.26672 | 13196 ft | 312 kts | 212° |
| 2026-05-04 21:50 | 33.23419 | -16.28065 | 12934 ft | 312 kts | 212° |
| 2026-05-04 21:50 | 33.21589 | -16.29454 | 12677 ft | 311 kts | 212° |
| 2026-05-04 21:50 | 33.19769 | -16.30836 | 12422 ft | 310 kts | 212° |
| 2026-05-04 21:50 | 33.17947 | -16.32218 | 12166 ft | 310 kts | 212° |
| 2026-05-04 21:51 | 33.16129 | -16.33596 | 11900 ft | 309 kts | 212° |
| 2026-05-04 21:51 | 33.14319 | -16.34968 | 11668 ft | 309 kts | 212° |
| 2026-05-04 21:51 | 33.12509 | -16.36339 | 11418 ft | 307 kts | 212° |
| 2026-05-04 21:51 | 33.10716 | -16.37696 | 11171 ft | 305 kts | 212° |
| 2026-05-04 21:52 | 33.08931 | -16.39046 | 10922 ft | 302 kts | 212° |
| 2026-05-04 21:52 | 33.07162 | -16.40383 | 10685 ft | 299 kts | 212° |
| 2026-05-04 21:52 | 33.05409 | -16.41707 | 10440 ft | 297 kts | 212° |
| 2026-05-04 21:52 | 33.03672 | -16.43019 | 10213 ft | 294 kts | 212° |
| 2026-05-04 21:53 | 33.01963 | -16.44309 | 10127 ft | 287 kts | 212° |
| 2026-05-04 21:53 | 33.00293 | -16.45570 | 10095 ft | 282 kts | 212° |
| 2026-05-04 21:53 | 32.98639 | -16.46819 | 9944 ft | 282 kts | 212° |
| 2026-05-04 21:53 | 32.96978 | -16.48071 | 9765 ft | 284 kts | 212° |
| 2026-05-04 21:54 | 32.95300 | -16.49335 | 9537 ft | 287 kts | 212° |
| 2026-05-04 21:54 | 32.93607 | -16.50610 | 9311 ft | 288 kts | 212° |
| 2026-05-04 21:54 | 32.91964 | -16.51983 | 9054 ft | 290 kts | 220° |
| 2026-05-04 21:54 | 32.90475 | -16.53587 | 8801 ft | 287 kts | 223° |
| 2026-05-04 21:55 | 32.89024 | -16.55206 | 8522 ft | 286 kts | 223° |
| 2026-05-04 21:55 | 32.87577 | -16.56790 | 8203 ft | 286 kts | 222° |
| 2026-05-04 21:55 | 32.86081 | -16.58402 | 7877 ft | 286 kts | 222° |
| 2026-05-04 21:55 | 32.84618 | -16.59970 | 7543 ft | 280 kts | 221° |
| 2026-05-04 21:56 | 32.83183 | -16.61503 | 7216 ft | 275 kts | 222° |
| 2026-05-04 21:56 | 32.81697 | -16.62871 | 6929 ft | 265 kts | 211° |
| 2026-05-04 21:56 | 32.80069 | -16.63801 | 6611 ft | 255 kts | 199° |
| 2026-05-04 21:56 | 32.78418 | -16.64459 | 6271 ft | 246 kts | 199° |
| 2026-05-04 21:57 | 32.76820 | -16.65103 | 5916 ft | 239 kts | 199° |
| 2026-05-04 21:57 | 32.75269 | -16.65730 | 5557 ft | 233 kts | 199° |
| 2026-05-04 21:57 | 32.73747 | -16.66345 | 5180 ft | 228 kts | 199° |
| 2026-05-04 21:57 | 32.72267 | -16.66943 | 4820 ft | 222 kts | 199° |
| 2026-05-04 21:58 | 32.70814 | -16.67530 | 4445 ft | 219 kts | 199° |
| 2026-05-04 21:58 | 32.69382 | -16.68107 | 4077 ft | 216 kts | 199° |
| 2026-05-04 21:58 | 32.67966 | -16.68678 | 3702 ft | 212 kts | 199° |
| 2026-05-04 21:58 | 32.66587 | -16.69234 | 3339 ft | 209 kts | 199° |
| 2026-05-04 21:59 | 32.65216 | -16.69786 | 2949 ft | 206 kts | 199° |
| 2026-05-04 21:59 | 32.63896 | -16.70330 | 2545 ft | 196 kts | 201° |
| 2026-05-04 21:59 | 32.62711 | -16.71068 | 2077 ft | 190 kts | 217° |
| 2026-05-04 21:59 | 32.61837 | -16.72137 | 1920 ft | 170 kts | 235° |
| 2026-05-04 22:00 | 32.61300 | -16.73283 | 1868 ft | 153 kts | 246° |
| 2026-05-04 22:00 | 32.60965 | -16.74484 | 1906 ft | 161 kts | 257° |
| 2026-05-04 22:00 | 32.60840 | -16.75813 | 1883 ft | 163 kts | 270° |
| 2026-05-04 22:00 | 32.60970 | -16.77153 | 1894 ft | 164 kts | 282° |
| 2026-05-04 22:01 | 32.61383 | -16.78419 | 1864 ft | 166 kts | 300° |
| 2026-05-04 22:01 | 32.62123 | -16.79461 | 1773 ft | 166 kts | 319° |
| 2026-05-04 22:01 | 32.63152 | -16.80177 | 1334 ft | 173 kts | 340° |
| 2026-05-04 22:01 | 32.64284 | -16.80438 | 1172 ft | 164 kts | 357° |
| 2026-05-04 22:02 | 32.65404 | -16.80291 | 894 ft | 158 kts | 13° |
| 2026-05-04 22:02 | 32.66377 | -16.79967 | 805 ft | 131 kts | 15° |
| 2026-05-04 22:02 | 32.67267 | -16.79702 | 590 ft | 136 kts | 17° |
| 2026-05-04 22:02 | 32.68123 | -16.79267 | 447 ft | 134 kts | 34° |
| 2026-05-04 22:03 | 32.68827 | -16.78570 | 268 ft | 131 kts | 46° |
| 2026-05-04 22:03 | 32.69435 | -16.77864 | 164 ft | 91 kts | 42° |
| 2026-05-04 22:03 | 32.69638 | -16.77632 | 173 ft | 7 kts | 44° |
| 2026-05-04 22:03 | 32.69738 | -16.77512 | 176 ft | 33 kts | 46° |
| 2026-05-04 22:04 | 32.69927 | -16.77282 | 178 ft | 27 kts | 50° |
| 2026-05-04 22:04 | 32.69919 | -16.77189 | 176 ft | 11 kts | 154° |
| 2026-05-04 22:04 | 32.69847 | -16.77183 | 175 ft | 11 kts | 204° |
| 2026-05-04 22:04 | 32.69781 | -16.77247 | 170 ft | 13 kts | 225° |
| 2026-05-04 22:05 | 32.69714 | -16.77331 | 166 ft | 15 kts | 228° |
| 2026-05-04 22:05 | 32.69641 | -16.77422 | 172 ft | 15 kts | 226° |
| 2026-05-04 22:05 | 32.69572 | -16.77506 | 173 ft | 14 kts | 225° |
| 2026-05-04 22:05 | 32.69505 | -16.77586 | 172 ft | 14 kts | 224° |
| 2026-05-04 22:06 | 32.69437 | -16.77669 | 169 ft | 14 kts | 229° |
| 2026-05-04 22:06 | 32.69369 | -16.77757 | 167 ft | 15 kts | 224° |
| 2026-05-04 22:06 | 32.69330 | -16.77800 | 168 ft | 0 kts | 208° |
| 2026-05-04 22:06 | 32.69329 | -16.77800 | 168 ft | 0 kts | 203° |
| 2026-05-04 22:07 | 32.69327 | -16.77799 | 168 ft | 1 kts | 179° |
| 2026-05-04 22:07 | 32.69320 | -16.77795 | 169 ft | 1 kts | 155° |
| 2026-05-04 22:07 | 32.69315 | -16.77790 | 169 ft | 1 kts | 144° |
| 2026-05-04 22:07 | 32.69309 | -16.77785 | 170 ft | 1 kts | 142° |
| 2026-05-04 22:08 | 32.69304 | -16.77780 | 171 ft | 1 kts | 139° |
| 2026-05-04 22:08 | 32.69299 | -16.77775 | 171 ft | 1 kts | 139° |
| 2026-05-04 22:08 | 32.69294 | -16.77770 | 172 ft | 1 kts | 139° |
| 2026-05-04 22:08 | 32.69289 | -16.77765 | 172 ft | 1 kts | 138° |
| 2026-05-04 22:09 | 32.69285 | -16.77760 | 173 ft | 1 kts | 137° |
| 2026-05-04 22:09 | 32.69280 | -16.77754 | 172 ft | 0 kts | 137° |